createdAt,value
2022-12-01T00:02:39.711Z,82.89
2022-12-01T00:05:55.046Z,83.84
2022-12-01T00:09:04.223Z,83.93
2022-12-01T00:12:26.055Z,84.53
2022-12-01T00:15:36.916Z,84.84
2022-12-01T00:18:45.016Z,85.24
2022-12-01T00:21:53.852Z,86.38
2022-12-01T00:25:09.041Z,86.79
2022-12-01T00:28:17.039Z,86.87
2022-12-01T00:31:33.050Z,87.59
2022-12-01T00:34:42.138Z,87.72
2022-12-01T00:37:57.156Z,86.86
2022-12-01T00:41:12.109Z,86.56
2022-12-01T00:44:14.096Z,87.41
2022-12-01T00:47:30.095Z,87.79
2022-12-01T00:50:32.275Z,87.70
2022-12-01T00:53:47.053Z,88.36
2022-12-01T00:56:55.032Z,88.39
2022-12-01T01:00:12.042Z,88.65
2022-12-01T01:03:20.795Z,88.86
2022-12-01T01:06:29.042Z,88.99
2022-12-01T01:09:44.029Z,89.40
2022-12-01T01:13:06.038Z,89.76
2022-12-01T01:16:19.858Z,90.02
2022-12-01T01:19:36.028Z,89.82
2022-12-01T01:22:44.605Z,89.82
2022-12-01T01:25:53.017Z,89.49
2022-12-01T01:29:11.029Z,89.42
2022-12-01T01:32:12.953Z,89.38
2022-12-01T01:35:28.016Z,89.58
2022-12-01T01:38:44.060Z,89.18
2022-12-01T01:41:46.067Z,89.32
2022-12-01T01:45:04.016Z,89.32
2022-12-01T01:48:06.042Z,89.55
2022-12-01T01:51:24.047Z,89.58
2022-12-01T01:54:31.758Z,89.25
2022-12-01T01:57:47.035Z,89.66
2022-12-01T02:00:48.986Z,89.62
2022-12-01T02:04:05.042Z,89.08
2022-12-01T02:07:23.052Z,89.17
2022-12-01T02:10:58.018Z,89.50
2022-12-01T02:14:23.025Z,89.65
2022-12-01T02:17:42.357Z,90.20
2022-12-01T02:21:27.029Z,90.14
2022-12-01T02:24:59.093Z,90.56
2022-12-01T02:28:16.929Z,91.10
2022-12-01T02:31:30.130Z,91.60
2022-12-01T02:35:06.029Z,91.96
2022-12-01T02:38:38.024Z,91.89
2022-12-01T02:41:59.029Z,91.83
2022-12-01T02:45:04.876Z,91.86
2022-12-01T02:48:34.010Z,92.18
2022-12-01T02:51:39.271Z,92.09
2022-12-01T02:54:55.002Z,92.15
2022-12-01T02:57:56.892Z,92.73
2022-12-01T03:01:21.060Z,92.78
2022-12-01T03:04:49.296Z,92.98
2022-12-01T03:08:28.018Z,93.06
2022-12-01T03:11:49.066Z,92.33
2022-12-01T03:15:15.991Z,92.95
2022-12-01T03:18:40.032Z,93.73
2022-12-01T03:22:13.646Z,93.84
2022-12-01T03:25:31.027Z,94.60
2022-12-01T03:28:51.033Z,95.20
2022-12-01T03:32:07.062Z,96.21
2022-12-01T03:35:21.874Z,96.36
2022-12-01T03:38:39.022Z,96.75
2022-12-01T03:42:08.016Z,97.16
2022-12-01T03:45:26.998Z,96.65
2022-12-01T03:48:43.015Z,96.70
2022-12-01T03:52:26.013Z,96.85
2022-12-01T03:55:40.880Z,96.67
2022-12-01T03:58:51.996Z,95.46
2022-12-01T04:02:07.067Z,95.66
2022-12-01T04:05:25.281Z,94.52
2022-12-01T04:08:41.007Z,93.90
2022-12-01T04:12:02.997Z,94.47
2022-12-01T04:15:10.953Z,94.84
2022-12-01T04:18:26.987Z,94.62
2022-12-01T04:21:36.033Z,95.05
2022-12-01T04:24:51.011Z,95.64
2022-12-01T04:27:52.887Z,95.47
2022-12-01T04:31:08.043Z,95.47
2022-12-01T04:34:10.367Z,94.26
2022-12-01T04:37:27.003Z,94.05
2022-12-01T04:40:28.945Z,93.81
2022-12-01T04:43:44.990Z,94.23
2022-12-01T04:46:53.495Z,93.59
2022-12-01T04:50:15.013Z,94.05
2022-12-01T04:53:31.007Z,94.99
2022-12-01T04:56:39.770Z,95.36
2022-12-01T04:59:55.005Z,95.57
2022-12-01T05:03:14.873Z,95.66
2022-12-01T05:06:26.773Z,95.93
2022-12-01T05:09:43.011Z,96.10
2022-12-01T05:12:51.362Z,96.80
2022-12-01T05:16:17.042Z,97.72
2022-12-01T05:19:19.152Z,98.09
2022-12-01T05:23:03.791Z,98.27
2022-12-01T05:26:04.297Z,98.68
2022-12-01T05:29:21.158Z,98.88
2022-12-01T05:32:36.004Z,98.54
2022-12-01T05:35:44.995Z,98.83
2022-12-01T05:39:01.011Z,99.37
2022-12-01T05:42:09.997Z,99.84
2022-12-01T05:45:25.013Z,99.81
2022-12-01T05:48:34.023Z,99.82
2022-12-01T05:51:50.005Z,99.97
2022-12-01T05:55:04.984Z,100.00
2022-12-01T05:58:14.004Z,100.00
2022-12-01T06:01:22.584Z,100.00
2022-12-01T06:04:36.976Z,100.00
2022-12-01T06:07:45.700Z,100.00
2022-12-01T06:10:53.985Z,100.00
2022-12-01T06:14:09.004Z,100.00
2022-12-01T06:17:17.978Z,100.00
2022-12-01T06:20:32.998Z,100.00
2022-12-01T06:23:35.023Z,100.00
2022-12-01T06:26:49.988Z,100.00
2022-12-01T06:29:58.655Z,100.00
2022-12-01T06:33:06.984Z,100.00
2022-12-01T06:36:21.985Z,100.00
2022-12-01T06:39:24.356Z,100.00
2022-12-01T06:42:39.007Z,100.00
2022-12-01T06:45:47.684Z,100.00
2022-12-01T06:48:56.036Z,100.00
2022-12-01T06:52:05.428Z,100.00
2022-12-01T06:55:21.001Z,100.00
2022-12-01T06:58:29.986Z,100.00
2022-12-01T07:01:39.320Z,100.00
2022-12-01T07:04:48.008Z,100.00
2022-12-01T07:08:04.014Z,100.00
2022-12-01T07:11:19.027Z,100.00
2022-12-01T07:14:33.973Z,100.00
2022-12-01T07:17:48.984Z,100.00
2022-12-01T07:20:56.991Z,100.00
2022-12-01T07:24:05.905Z,100.00
2022-12-01T07:27:20.994Z,100.00
2022-12-01T07:30:30.010Z,100.00
2022-12-01T07:33:38.981Z,100.00
2022-12-01T07:36:47.665Z,100.00
2022-12-01T07:40:03.160Z,100.00
2022-12-01T07:43:13.072Z,100.00
2022-12-01T07:46:31.134Z,100.00
2022-12-01T07:49:39.541Z,100.00
2022-12-01T07:52:47.976Z,100.00
2022-12-01T07:56:07.075Z,100.00
2022-12-01T07:59:17.781Z,100.00
2022-12-01T08:02:26.074Z,100.00
2022-12-01T08:05:34.661Z,100.00
2022-12-01T08:08:44.986Z,100.00
2022-12-01T08:12:00.249Z,99.51
2022-12-01T08:15:09.002Z,98.63
2022-12-01T08:18:23.989Z,98.14
2022-12-01T08:21:26.201Z,97.35
2022-12-01T08:24:40.980Z,96.72
2022-12-01T08:27:49.661Z,96.85
2022-12-01T08:30:58.058Z,95.66
2022-12-01T08:34:07.366Z,95.25
2022-12-01T08:37:15.980Z,95.46
2022-12-01T08:40:24.973Z,94.40
2022-12-01T08:43:57.329Z,93.85
2022-12-01T08:47:17.290Z,92.71
2022-12-01T08:50:28.626Z,92.25
2022-12-01T08:53:42.584Z,91.70
2022-12-01T08:56:59.976Z,91.07
2022-12-01T09:00:09.154Z,90.55
2022-12-01T09:03:18.086Z,90.23
2022-12-01T09:06:26.608Z,89.55
2022-12-01T09:09:41.993Z,88.69
2022-12-01T09:13:03.955Z,87.93
2022-12-01T09:16:19.010Z,86.35
2022-12-01T09:19:33.977Z,84.75
2022-12-01T09:22:42.570Z,83.69
2022-12-01T09:25:57.959Z,81.84
2022-12-01T09:29:16.974Z,81.70
2022-12-01T09:32:25.724Z,80.01
2022-12-01T09:35:33.987Z,79.94
2022-12-01T09:38:42.658Z,79.20
2022-12-01T09:41:53.981Z,79.21
2022-12-01T09:45:10.963Z,78.03
2022-12-01T09:48:36.982Z,77.78
2022-12-01T09:51:45.965Z,77.04
2022-12-01T09:54:54.977Z,77.21
2022-12-01T09:58:11.958Z,75.49
2022-12-01T10:01:27.382Z,77.39
2022-12-01T10:04:50.952Z,76.38
2022-12-01T10:08:13.969Z,75.25
2022-12-01T10:11:30.350Z,75.95
2022-12-01T10:14:44.962Z,74.86
2022-12-01T10:18:21.000Z,75.87
2022-12-01T10:21:29.580Z,75.65
2022-12-01T10:25:02.960Z,74.75
2022-12-01T10:28:30.052Z,73.24
2022-12-01T10:32:00.090Z,73.20
2022-12-01T10:35:31.023Z,74.46
2022-12-01T10:38:36.703Z,75.87
2022-12-01T10:41:53.991Z,74.46
2022-12-01T10:45:07.290Z,75.08
2022-12-01T10:48:29.989Z,74.27
2022-12-01T10:51:45.572Z,73.63
2022-12-01T10:54:59.958Z,74.05
2022-12-01T10:58:17.096Z,73.16
2022-12-01T11:01:33.116Z,73.51
2022-12-01T11:04:55.705Z,74.27
2022-12-01T11:08:11.999Z,72.34
2022-12-01T11:11:36.960Z,72.73
2022-12-01T11:14:55.420Z,72.78
2022-12-01T11:18:13.968Z,72.22
2022-12-01T11:21:34.961Z,71.86
2022-12-01T11:25:02.018Z,71.43
2022-12-01T11:28:20.345Z,70.96
2022-12-01T11:31:46.016Z,69.50
2022-12-01T11:35:02.969Z,70.91
2022-12-01T11:38:29.711Z,71.32
2022-12-01T11:41:40.864Z,72.47
2022-12-01T11:45:01.193Z,70.96
2022-12-01T11:48:12.620Z,69.78
2022-12-01T11:51:23.961Z,70.18
2022-12-01T11:54:38.967Z,70.50
2022-12-01T11:57:52.977Z,70.68
2022-12-01T12:01:01.988Z,69.21
2022-12-01T12:04:09.958Z,69.55
2022-12-01T12:07:42.992Z,69.10
2022-12-01T12:11:17.442Z,69.13
2022-12-01T12:14:38.990Z,70.06
2022-12-01T12:18:07.389Z,69.89
2022-12-01T12:21:36.943Z,69.86
2022-12-01T12:24:53.970Z,69.43
2022-12-01T12:28:27.172Z,69.83
2022-12-01T12:32:14.975Z,70.21
2022-12-01T12:35:44.952Z,70.21
2022-12-01T12:39:15.068Z,69.68
2022-12-01T12:42:56.970Z,69.67
2022-12-01T12:46:41.057Z,70.14
2022-12-01T12:50:00.975Z,70.38
2022-12-01T12:53:27.956Z,71.17
2022-12-01T12:56:37.134Z,71.37
2022-12-01T13:00:35.341Z,71.67
2022-12-01T13:04:32.717Z,71.92
2022-12-01T13:07:48.659Z,71.60
2022-12-01T13:11:10.954Z,71.49
2022-12-01T13:14:49.972Z,71.75
2022-12-01T13:17:56.692Z,71.75
2022-12-01T13:21:12.970Z,71.80
2022-12-01T13:24:24.624Z,72.07
2022-12-01T13:27:36.983Z,72.44
2022-12-01T13:31:07.990Z,72.73
2022-12-01T13:34:29.289Z,72.26
2022-12-01T13:37:40.950Z,73.04
2022-12-01T13:40:55.962Z,72.12
2022-12-01T13:44:18.564Z,72.02
2022-12-01T13:47:44.951Z,72.61
2022-12-01T13:50:58.289Z,73.19
2022-12-01T13:54:37.958Z,73.92
2022-12-01T13:58:10.708Z,74.08
2022-12-01T14:01:29.112Z,74.38
2022-12-01T14:04:43.939Z,74.43
2022-12-01T14:07:46.022Z,74.84
2022-12-01T14:11:10.952Z,75.29
2022-12-01T14:14:29.163Z,75.50
2022-12-01T14:17:43.454Z,76.36
2022-12-01T14:21:02.031Z,76.17
2022-12-01T14:24:06.520Z,75.50
2022-12-01T14:27:38.953Z,76.25
2022-12-01T14:30:56.986Z,76.12
2022-12-01T14:34:15.748Z,77.14
2022-12-01T14:37:39.927Z,77.24
2022-12-01T14:40:55.054Z,77.70
2022-12-01T14:44:11.988Z,79.02
2022-12-01T14:47:29.412Z,79.28
2022-12-01T14:50:47.070Z,79.84
2022-12-01T14:54:03.937Z,81.21
2022-12-01T14:57:23.945Z,81.49
2022-12-01T15:00:44.001Z,81.96
2022-12-01T15:03:57.376Z,82.80
2022-12-01T15:07:11.953Z,83.44
2022-12-01T15:10:38.939Z,82.74
2022-12-01T15:13:56.288Z,83.36
2022-12-01T15:17:12.936Z,83.97
2022-12-01T15:20:47.891Z,84.44
2022-12-01T15:24:05.959Z,84.43
2022-12-01T15:27:30.946Z,84.08
2022-12-01T15:30:33.135Z,84.29
2022-12-01T15:33:54.948Z,85.07
2022-12-01T15:37:07.210Z,85.84
2022-12-01T15:41:06.165Z,85.98
2022-12-01T15:44:05.938Z,86.55
2022-12-01T15:47:53.588Z,87.11
2022-12-01T15:51:34.141Z,86.71
2022-12-01T15:54:54.002Z,87.17
2022-12-01T15:57:56.971Z,87.84
2022-12-01T16:01:18.342Z,87.35
2022-12-01T16:04:29.991Z,87.70
2022-12-01T16:11:11.796Z,88.25
2022-12-01T16:14:33.938Z,88.55
2022-12-01T16:17:52.281Z,88.25
2022-12-01T16:21:05.515Z,89.23
2022-12-01T16:24:20.939Z,89.69
2022-12-01T16:27:37.932Z,89.19
2022-12-01T16:30:46.849Z,89.27
2022-12-01T16:33:55.927Z,89.16
2022-12-01T16:37:11.322Z,88.97
2022-12-01T16:40:29.740Z,89.71
2022-12-01T16:43:31.992Z,90.12
2022-12-01T16:46:49.980Z,90.44
2022-12-01T16:49:58.972Z,90.60
2022-12-01T16:53:07.925Z,90.62
2022-12-01T16:56:23.377Z,90.93
2022-12-01T16:59:42.322Z,91.08
2022-12-01T17:02:51.330Z,90.99
2022-12-01T17:06:08.348Z,91.35
2022-12-01T17:09:17.113Z,91.95
2022-12-01T17:12:39.440Z,91.64
2022-12-01T17:15:49.414Z,91.75
2022-12-01T17:19:00.172Z,92.20
2022-12-01T17:22:09.342Z,91.98
2022-12-01T17:25:18.078Z,92.38
2022-12-01T17:28:26.997Z,92.83
2022-12-01T17:31:42.324Z,92.90
2022-12-01T17:34:50.852Z,93.21
2022-12-01T17:38:07.037Z,93.15
2022-12-01T17:41:24.972Z,93.11
2022-12-01T17:44:33.747Z,93.99
2022-12-01T17:47:41.964Z,93.63
2022-12-01T17:50:50.645Z,93.49
2022-12-01T17:54:00.943Z,94.22
2022-12-01T17:57:09.681Z,94.31
2022-12-01T18:00:21.342Z,94.17
2022-12-01T18:03:29.811Z,94.13
2022-12-01T18:06:47.977Z,94.56
2022-12-01T18:10:07.923Z,94.89
2022-12-01T18:13:10.308Z,95.16
2022-12-01T18:16:25.287Z,95.14
2022-12-01T18:19:34.234Z,95.47
2022-12-01T18:22:42.723Z,96.05
2022-12-01T18:25:58.005Z,96.33
2022-12-01T18:29:13.301Z,96.79
2022-12-01T18:32:23.071Z,96.73
2022-12-01T18:35:38.012Z,97.26
2022-12-01T18:38:46.941Z,96.92
2022-12-01T18:41:56.322Z,96.92
2022-12-01T18:45:12.186Z,96.99
2022-12-01T18:48:17.807Z,97.17
2022-12-01T18:51:34.212Z,97.69
2022-12-01T18:54:49.714Z,97.89
2022-12-01T18:57:59.344Z,98.19
2022-12-01T19:01:25.362Z,98.83
2022-12-01T19:04:40.866Z,99.11
2022-12-01T19:07:49.568Z,98.74
2022-12-01T19:11:10.372Z,98.62
2022-12-01T19:14:35.343Z,98.90
2022-12-01T19:17:50.485Z,99.03
2022-12-01T19:20:59.426Z,99.47
2022-12-01T19:24:14.397Z,98.98
2022-12-01T19:27:22.972Z,98.98
2022-12-01T19:30:47.919Z,99.33
2022-12-01T19:33:52.510Z,98.87
2022-12-01T19:37:07.935Z,99.05
2022-12-01T19:40:16.659Z,99.27
2022-12-01T19:43:25.358Z,99.39
2022-12-01T19:46:35.759Z,99.65
2022-12-01T19:49:51.493Z,99.37
2022-12-01T19:52:54.017Z,99.53
2022-12-01T19:56:10.907Z,99.93
2022-12-01T19:59:20.395Z,100.00
2022-12-01T20:02:29.452Z,100.00
2022-12-01T20:05:39.349Z,100.00
2022-12-01T20:08:48.587Z,100.00
2022-12-01T20:12:03.938Z,100.00
2022-12-01T20:15:25.952Z,100.00
2022-12-01T20:18:35.596Z,100.00
2022-12-01T20:21:51.315Z,100.00
2022-12-01T20:25:01.481Z,100.00
2022-12-01T20:28:10.320Z,100.00
2022-12-01T20:31:25.567Z,100.00
2022-12-01T20:34:39.860Z,100.00
2022-12-01T20:37:55.514Z,100.00
2022-12-01T20:41:06.101Z,100.00
2022-12-01T20:44:16.388Z,100.00
2022-12-01T20:47:31.328Z,100.00
2022-12-01T20:50:43.078Z,100.00
2022-12-01T20:54:26.196Z,100.00
2022-12-01T20:57:20.801Z,100.00
2022-12-01T21:00:37.254Z,100.00
2022-12-01T21:03:47.520Z,100.00
2022-12-01T21:06:55.912Z,100.00
2022-12-01T21:10:16.986Z,100.00
2022-12-01T21:13:32.915Z,100.00
2022-12-01T21:16:55.315Z,100.00
2022-12-01T21:20:28.909Z,100.00
2022-12-01T21:23:30.872Z,100.00
2022-12-01T21:26:49.162Z,100.00
2022-12-01T21:29:51.191Z,100.00
2022-12-01T21:33:25.971Z,100.00
2022-12-01T21:36:41.919Z,100.00
2022-12-01T21:39:50.071Z,100.00
2022-12-01T21:43:24.927Z,100.00
2022-12-01T21:46:34.540Z,100.00
2022-12-01T21:49:45.939Z,100.00
2022-12-01T21:53:00.961Z,100.00
2022-12-01T21:56:29.734Z,100.00
2022-12-01T21:59:44.891Z,100.00
2022-12-01T22:03:06.990Z,100.00
2022-12-01T22:06:31.980Z,100.00
2022-12-01T22:09:46.931Z,100.00
2022-12-01T22:13:07.447Z,100.00
2022-12-01T22:16:31.932Z,100.00
2022-12-01T22:19:59.908Z,100.00
2022-12-01T22:23:13.038Z,100.00
2022-12-01T22:26:26.907Z,100.00
2022-12-01T22:29:43.316Z,100.00
2022-12-01T22:33:06.911Z,100.00
2022-12-01T22:36:27.643Z,100.00
2022-12-01T22:39:42.879Z,100.00
2022-12-01T22:42:50.911Z,100.00
2022-12-01T22:46:05.943Z,100.00
2022-12-01T22:49:16.328Z,100.00
2022-12-01T22:52:35.920Z,100.00
2022-12-01T22:55:44.727Z,100.00
2022-12-01T22:58:53.897Z,100.00
2022-12-01T23:02:30.967Z,100.00
2022-12-01T23:05:39.903Z,100.00
2022-12-01T23:08:54.900Z,100.00
2022-12-01T23:12:16.873Z,100.00
2022-12-01T23:15:45.921Z,100.00
2022-12-01T23:18:55.090Z,100.00
2022-12-01T23:22:09.879Z,100.00
2022-12-01T23:25:20.880Z,100.00
2022-12-01T23:28:30.489Z,100.00
2022-12-01T23:31:38.904Z,100.00
2022-12-01T23:34:59.723Z,100.00
2022-12-01T23:38:24.890Z,100.00
2022-12-01T23:41:44.050Z,100.00
2022-12-01T23:44:45.981Z,100.00
2022-12-01T23:48:06.721Z,100.00
2022-12-01T23:51:41.893Z,100.00
2022-12-01T23:54:56.910Z,100.00
2022-12-01T23:58:10.762Z,100.00
